createdAt,value
2019-03-16T09:21:57.843Z,20.767212
2019-03-16T09:22:00.178Z,20.797424
2019-03-16T09:22:02.623Z,20.817566
2019-03-16T09:22:04.936Z,20.817566
2019-03-16T09:22:07.337Z,20.827637
2019-03-16T09:22:09.696Z,20.847778
2019-03-16T09:22:12.069Z,20.877991
2019-03-16T09:22:14.450Z,20.857849
2019-03-16T09:22:16.855Z,20.888062
2019-03-16T09:22:19.257Z,20.888062
2019-03-16T09:22:21.599Z,20.928345
2019-03-16T09:22:23.962Z,20.918274
2019-03-16T09:22:26.346Z,20.928345
2019-03-16T09:22:29.868Z,20.948486
2019-03-16T09:22:32.156Z,20.948486
2019-03-16T09:22:34.944Z,20.928345
2019-03-16T09:22:37.406Z,20.948486
2019-03-16T09:22:39.812Z,20.978699
2019-03-16T09:22:42.184Z,20.958557
2019-03-16T09:22:45.596Z,20.978699
2019-03-16T09:22:50.535Z,20.978699
2019-03-16T09:22:53.989Z,20.99884
2019-03-16T09:22:56.436Z,20.99884
2019-03-16T09:22:58.805Z,20.99884
2019-03-16T09:23:01.406Z,20.99884
2019-03-16T09:23:04.564Z,21.029053
2019-03-16T09:23:06.994Z,21.029053
2019-03-16T09:23:09.574Z,21.008911
2019-03-16T09:23:11.983Z,21.029053
2019-03-16T09:23:14.381Z,21.029053
2019-03-16T09:23:16.682Z,21.039124
2019-03-16T09:23:19.082Z,21.029053
2019-03-16T09:23:21.493Z,21.029053
2019-03-16T09:23:23.818Z,21.039124
2019-03-16T09:23:26.271Z,21.039124
2019-03-16T09:23:28.571Z,21.039124
2019-03-16T09:23:30.914Z,21.049194
2019-03-16T09:23:33.255Z,21.079407
2019-03-16T09:23:35.625Z,21.029053
2019-03-16T09:23:37.990Z,21.049194
2019-03-16T09:23:40.337Z,21.069336
2019-03-16T09:23:42.713Z,21.049194
2019-03-16T09:23:45.186Z,21.069336
2019-03-16T09:23:47.540Z,21.069336
2019-03-16T09:23:49.876Z,21.069336
2019-03-16T09:23:52.269Z,21.079407
2019-03-16T09:23:54.609Z,21.099548
2019-03-16T09:23:56.952Z,21.079407
2019-03-16T09:23:59.315Z,21.099548
2019-03-16T09:24:01.673Z,21.129761
2019-03-16T09:24:04.096Z,21.109619
2019-03-16T09:24:06.464Z,21.109619
2019-03-16T09:24:08.857Z,21.109619
2019-03-16T09:24:11.221Z,21.109619
2019-03-16T09:24:13.625Z,21.139832
2019-03-16T09:24:15.977Z,21.129761
2019-03-16T09:24:18.352Z,21.139832
2019-03-16T09:24:20.686Z,21.129761
2019-03-16T09:24:23.067Z,21.139832
2019-03-16T09:24:25.412Z,21.129761
2019-03-16T09:24:27.787Z,21.139832
2019-03-16T09:24:30.218Z,21.149902
2019-03-16T09:24:32.580Z,21.139832
2019-03-16T09:24:34.982Z,21.149902
2019-03-16T09:24:37.542Z,21.170044
2019-03-16T09:24:39.931Z,21.170044
2019-03-16T09:24:42.349Z,21.149902
2019-03-16T09:24:44.915Z,21.149902
2019-03-16T09:24:47.303Z,21.190186
2019-03-16T09:24:49.669Z,21.170044
2019-03-16T09:24:52.124Z,21.190186
2019-03-16T09:24:54.585Z,21.170044
2019-03-16T09:24:56.928Z,21.190186
2019-03-16T09:24:59.316Z,21.190186
2019-03-16T09:25:01.665Z,21.190186
2019-03-16T09:25:04.156Z,21.190186
2019-03-16T09:25:06.586Z,21.190186
2019-03-16T09:25:08.927Z,21.200256
2019-03-16T09:25:11.292Z,21.190186
2019-03-16T09:25:13.748Z,21.170044
2019-03-16T09:25:16.112Z,21.200256
2019-03-16T09:25:18.467Z,21.220398
2019-03-16T09:25:20.820Z,21.200256
2019-03-16T09:25:23.165Z,21.200256
2019-03-16T09:25:25.535Z,21.220398
2019-03-16T09:25:27.886Z,21.190186
2019-03-16T09:25:30.277Z,21.230469
2019-03-16T09:25:32.645Z,21.220398
2019-03-16T09:25:35.006Z,21.230469
2019-03-16T09:25:37.452Z,21.220398
2019-03-16T09:25:39.803Z,21.200256
2019-03-16T09:25:42.230Z,21.220398
2019-03-16T09:25:44.653Z,21.230469
2019-03-16T09:25:47.009Z,21.200256
2019-03-16T09:25:49.430Z,21.220398
2019-03-16T09:25:51.771Z,21.230469
2019-03-16T09:25:54.156Z,21.25061
2019-03-16T09:25:56.468Z,21.230469
2019-03-16T09:25:58.875Z,21.230469
2019-03-16T09:26:01.290Z,21.220398
2019-03-16T09:26:03.677Z,21.260681
2019-03-16T09:26:06.047Z,21.220398
2019-03-16T09:26:08.395Z,21.220398
2019-03-16T09:26:10.837Z,21.230469
2019-03-16T09:26:13.222Z,21.230469
2019-03-16T09:26:15.563Z,21.230469
2019-03-16T09:26:17.908Z,21.25061
2019-03-16T09:26:20.288Z,21.220398
2019-03-16T09:26:22.761Z,21.220398
2019-03-16T09:26:25.117Z,21.230469
2019-03-16T09:26:27.491Z,21.25061
2019-03-16T09:26:29.863Z,21.230469
2019-03-16T09:26:32.233Z,21.230469
2019-03-16T09:26:34.629Z,21.260681
2019-03-16T09:26:37.015Z,21.25061
2019-03-16T09:26:39.365Z,21.230469
2019-03-16T09:26:41.737Z,21.260681
2019-03-16T09:26:44.115Z,21.25061
2019-03-16T09:26:46.467Z,21.230469
2019-03-16T09:26:48.884Z,21.25061
2019-03-16T09:26:51.345Z,21.260681
2019-03-16T09:26:53.743Z,21.230469
2019-03-16T09:26:56.107Z,21.25061
2019-03-16T09:26:58.448Z,21.230469
2019-03-16T09:27:00.778Z,21.280823
2019-03-16T09:27:03.138Z,21.25061
2019-03-16T09:27:05.502Z,21.25061
2019-03-16T09:27:07.861Z,21.25061
2019-03-16T09:27:10.204Z,21.230469
2019-03-16T09:27:12.578Z,21.230469
2019-03-16T09:27:14.901Z,21.25061
2019-03-16T09:27:17.329Z,21.230469
2019-03-16T09:27:30.471Z,21.25061
2019-03-16T09:27:30.857Z,21.25061
2019-03-16T09:27:31.581Z,21.230469
2019-03-16T09:27:33.625Z,21.230469
2019-03-16T09:27:36.036Z,21.260681
2019-03-16T09:27:38.398Z,21.25061
2019-03-16T09:27:40.784Z,21.25061
2019-03-16T09:27:43.126Z,21.230469
2019-03-16T09:27:45.465Z,21.260681
2019-03-16T09:27:47.803Z,21.260681
2019-03-16T09:27:50.170Z,21.230469
2019-03-16T09:27:52.626Z,21.230469
2019-03-16T09:27:55.043Z,21.260681
2019-03-16T09:27:57.659Z,21.25061
2019-03-16T09:28:00.041Z,21.25061
2019-03-16T09:28:02.480Z,21.230469
2019-03-16T09:28:04.837Z,21.260681
2019-03-16T09:28:17.993Z,21.25061
2019-03-16T09:28:18.362Z,21.230469
2019-03-16T09:28:18.775Z,21.260681
2019-03-16T09:28:20.218Z,21.280823
2019-03-16T09:28:22.570Z,21.230469
2019-03-16T09:28:24.948Z,21.25061
2019-03-16T09:28:27.285Z,21.25061
2019-03-16T09:28:30.982Z,21.260681
2019-03-16T09:28:33.347Z,21.230469
2019-03-16T09:28:35.652Z,21.25061
2019-03-16T09:28:38.024Z,21.280823
2019-03-16T09:28:40.391Z,21.260681
2019-03-16T09:28:42.755Z,21.25061
2019-03-16T09:28:45.101Z,21.260681
2019-03-16T09:28:59.303Z,21.280823
2019-03-16T09:28:59.794Z,21.280823
2019-03-16T09:29:00.148Z,21.260681
2019-03-16T09:29:00.564Z,21.280823
2019-03-16T09:29:14.291Z,21.290894
2019-03-16T09:29:14.650Z,21.290894
2019-03-16T09:29:15.080Z,21.290894
2019-03-16T09:29:15.901Z,21.300964
2019-03-16T09:29:18.266Z,21.321106
2019-03-16T09:29:20.676Z,21.290894
2019-03-16T09:29:23.005Z,21.290894
2019-03-16T09:29:25.413Z,21.300964
2019-03-16T09:29:27.855Z,21.321106
2019-03-16T09:29:30.269Z,21.321106
2019-03-16T09:29:32.602Z,21.321106
2019-03-16T09:29:34.985Z,21.37146
2019-03-16T09:29:37.347Z,21.351318
2019-03-16T09:29:40.820Z,21.381531
2019-03-16T09:29:43.201Z,21.37146
2019-03-16T09:29:45.545Z,21.37146
2019-03-16T09:29:47.912Z,21.381531
2019-03-16T09:29:50.242Z,21.37146
2019-03-16T09:29:52.628Z,21.401672
2019-03-16T09:29:55.002Z,21.381531
2019-03-16T09:29:57.379Z,21.381531
2019-03-16T09:29:59.724Z,21.411743
2019-03-16T09:30:02.059Z,21.401672
2019-03-16T09:30:04.385Z,21.411743
2019-03-16T09:30:06.756Z,21.411743
2019-03-16T09:30:09.110Z,21.411743
2019-03-16T09:30:11.483Z,21.431885
2019-03-16T09:30:13.872Z,21.441956
2019-03-16T09:30:16.208Z,21.431885
2019-03-16T09:30:18.581Z,21.431885
2019-03-16T09:30:20.926Z,21.441956
2019-03-16T09:30:23.296Z,21.441956
2019-03-16T09:30:25.687Z,21.452026
2019-03-16T09:30:28.031Z,21.452026
2019-03-16T09:30:30.393Z,21.452026
2019-03-16T09:30:32.758Z,21.452026
2019-03-16T09:30:35.101Z,21.441956
2019-03-16T09:30:37.466Z,21.472168
2019-03-16T09:30:40.840Z,21.472168
2019-03-16T09:30:43.222Z,21.482239
2019-03-16T09:30:45.610Z,21.452026
2019-03-16T09:30:47.958Z,21.472168
2019-03-16T09:30:50.321Z,21.452026
2019-03-16T09:30:52.689Z,21.452026
2019-03-16T09:30:56.563Z,21.482239
2019-03-16T09:30:58.390Z,21.482239
2019-03-16T09:31:00.768Z,21.472168
2019-03-16T09:31:03.194Z,21.482239
2019-03-16T09:31:05.505Z,21.472168
2019-03-16T09:31:07.873Z,21.482239
2019-03-16T09:31:10.221Z,21.50238
2019-03-16T09:31:12.669Z,21.482239
2019-03-16T09:31:15.049Z,21.482239
2019-03-16T09:31:17.441Z,21.50238
2019-03-16T09:31:19.876Z,21.482239
2019-03-16T09:31:22.235Z,21.482239
2019-03-16T09:31:24.596Z,21.512451
2019-03-16T09:31:26.933Z,21.50238
2019-03-16T09:31:29.326Z,21.512451
2019-03-16T09:31:31.712Z,21.50238
2019-03-16T09:31:34.132Z,21.532593
2019-03-16T09:31:36.451Z,21.532593
2019-03-16T09:31:38.819Z,21.50238
2019-03-16T09:31:41.209Z,21.542664
2019-03-16T09:31:43.572Z,21.50238
2019-03-16T09:31:45.966Z,21.512451
2019-03-16T09:31:48.332Z,21.532593
2019-03-16T09:31:50.712Z,21.512451
2019-03-16T09:31:53.064Z,21.512451
2019-03-16T09:31:55.422Z,21.532593
2019-03-16T09:31:57.794Z,21.562805
2019-03-16T09:32:00.166Z,21.542664
2019-03-16T09:32:02.530Z,21.532593
2019-03-16T09:32:04.999Z,21.582947
2019-03-16T09:32:07.329Z,21.542664
2019-03-16T09:32:09.705Z,21.542664
2019-03-16T09:32:12.121Z,21.562805
2019-03-16T09:32:14.502Z,21.593018
2019-03-16T09:32:17.015Z,21.562805
2019-03-16T09:32:19.506Z,21.603088
2019-03-16T09:32:21.830Z,21.582947
2019-03-16T09:32:24.287Z,21.582947
2019-03-16T09:32:26.663Z,21.603088
2019-03-16T09:32:29.076Z,21.603088
2019-03-16T09:32:31.431Z,21.593018
2019-03-16T09:32:33.793Z,21.593018
2019-03-16T09:32:36.163Z,21.603088
2019-03-16T09:32:38.527Z,21.603088
2019-03-16T09:32:40.902Z,21.562805
2019-03-16T09:32:43.233Z,21.593018
2019-03-16T09:32:45.619Z,21.582947
2019-03-16T09:32:47.975Z,21.603088
2019-03-16T09:32:50.343Z,21.593018
2019-03-16T09:32:52.666Z,21.603088
2019-03-16T09:32:55.035Z,21.593018
2019-03-16T09:32:57.377Z,21.603088
2019-03-16T09:32:59.739Z,21.582947
2019-03-16T09:33:02.211Z,21.603088
2019-03-16T09:33:25.825Z,21.593018
2019-03-16T09:33:29.006Z,21.582947
2019-03-16T09:33:31.393Z,21.593018
2019-03-16T09:33:33.751Z,21.593018
2019-03-16T09:33:36.126Z,21.562805
2019-03-16T09:33:38.520Z,21.562805
2019-03-16T09:33:40.885Z,21.582947
2019-03-16T09:33:43.276Z,21.542664
2019-03-16T09:33:45.627Z,21.593018
2019-03-16T09:33:47.990Z,21.542664
2019-03-16T09:33:50.318Z,21.562805
2019-03-16T09:33:52.685Z,21.542664
2019-03-16T09:33:56.063Z,21.562805
2019-03-16T09:33:58.391Z,21.542664
2019-03-16T09:34:01.745Z,21.562805
2019-03-16T09:34:04.123Z,21.542664
2019-03-16T09:34:06.481Z,21.562805
2019-03-16T09:34:08.855Z,21.542664
2019-03-16T09:34:11.231Z,21.562805
2019-03-16T09:34:13.622Z,21.582947
2019-03-16T09:34:15.984Z,21.542664
2019-03-16T09:34:18.331Z,21.562805
2019-03-16T09:34:20.657Z,21.582947
2019-03-16T09:34:23.043Z,21.582947
2019-03-16T09:34:25.393Z,21.562805
2019-03-16T09:34:27.735Z,21.582947
2019-03-16T09:34:30.065Z,21.593018
2019-03-16T09:34:32.477Z,21.582947
2019-03-16T09:34:35.830Z,21.582947
2019-03-16T09:34:38.185Z,21.582947
2019-03-16T09:34:40.534Z,21.593018
2019-03-16T09:34:42.991Z,21.562805
2019-03-16T09:34:45.233Z,21.582947
2019-03-16T09:34:47.687Z,21.593018
2019-03-16T09:34:50.381Z,21.593018
2019-03-16T09:34:52.766Z,21.582947
2019-03-16T09:34:55.156Z,21.603088
2019-03-16T09:34:57.565Z,21.593018
2019-03-16T09:34:59.952Z,21.603088
2019-03-16T09:35:02.312Z,21.62323
2019-03-16T09:35:04.662Z,21.62323
2019-03-16T09:35:07.061Z,21.603088
2019-03-16T09:35:09.449Z,21.62323
2019-03-16T09:35:11.808Z,21.62323
2019-03-16T09:35:14.226Z,21.633301
2019-03-16T09:35:16.580Z,21.62323
2019-03-16T09:35:18.946Z,21.633301
2019-03-16T09:35:21.324Z,21.62323
2019-03-16T09:35:23.710Z,21.633301
2019-03-16T09:35:26.152Z,21.603088
2019-03-16T09:35:28.500Z,21.633301
2019-03-16T09:35:30.879Z,21.663513
2019-03-16T09:35:33.256Z,21.633301
2019-03-16T09:35:35.660Z,21.663513
2019-03-16T09:35:38.031Z,21.653442
2019-03-16T09:35:40.424Z,21.663513
2019-03-16T09:35:42.821Z,21.663513
2019-03-16T09:35:45.213Z,21.653442
2019-03-16T09:35:47.593Z,21.653442
2019-03-16T09:35:49.984Z,21.653442
2019-03-16T09:35:52.332Z,21.653442
2019-03-16T09:35:54.682Z,21.653442
2019-03-16T09:35:57.063Z,21.663513
2019-03-16T09:35:59.503Z,21.633301
2019-03-16T09:36:01.864Z,21.663513
2019-03-16T09:36:04.245Z,21.62323
2019-03-16T09:36:06.635Z,21.653442
2019-03-16T09:36:08.992Z,21.633301
2019-03-16T09:36:11.407Z,21.653442
2019-03-16T09:36:13.788Z,21.633301
2019-03-16T09:36:16.213Z,21.653442
2019-03-16T09:36:18.956Z,21.653442
2019-03-16T09:36:21.328Z,21.653442
2019-03-16T09:36:23.687Z,21.663513
2019-03-16T09:36:26.037Z,21.663513
2019-03-16T09:36:28.391Z,21.653442
2019-03-16T09:36:30.776Z,21.653442
2019-03-16T09:36:33.125Z,21.633301
2019-03-16T09:36:35.507Z,21.653442
2019-03-16T09:36:37.865Z,21.633301
2019-03-16T09:36:40.272Z,21.663513
2019-03-16T09:36:42.609Z,21.633301
2019-03-16T09:36:44.938Z,21.653442
2019-03-16T09:36:47.272Z,21.633301
2019-03-16T09:36:49.655Z,21.653442
2019-03-16T09:36:52.017Z,21.663513
2019-03-16T09:36:54.381Z,21.653442
2019-03-16T09:36:56.757Z,21.633301
2019-03-16T09:36:59.147Z,21.633301
2019-03-16T09:37:01.547Z,21.633301
2019-03-16T09:37:03.912Z,21.653442
2019-03-16T09:37:06.294Z,21.663513
2019-03-16T09:37:08.653Z,21.653442
2019-03-16T09:37:11.016Z,21.653442
2019-03-16T09:37:13.381Z,21.653442
2019-03-16T09:37:15.796Z,21.653442
2019-03-16T09:37:18.182Z,21.653442
2019-03-16T09:37:20.541Z,21.663513
2019-03-16T09:37:22.926Z,21.663513
2019-03-16T09:37:25.284Z,21.653442
2019-03-16T09:37:27.658Z,21.663513
2019-03-16T09:37:30.008Z,21.653442
2019-03-16T09:37:32.395Z,21.62323
2019-03-16T09:37:34.806Z,21.653442
2019-03-16T09:37:37.171Z,21.683655
2019-03-16T09:37:39.568Z,21.633301
2019-03-16T09:37:41.990Z,21.653442
2019-03-16T09:37:44.343Z,21.663513
2019-03-16T09:37:46.736Z,21.663513
2019-03-16T09:37:49.136Z,21.663513
2019-03-16T09:37:52.486Z,21.663513
2019-03-16T09:37:54.851Z,21.663513
2019-03-16T09:37:57.202Z,21.693726
2019-03-16T09:38:00.535Z,21.663513
2019-03-16T09:38:05.145Z,21.693726
2019-03-16T09:38:06.246Z,21.663513
2019-03-16T09:38:08.663Z,21.683655
2019-03-16T09:38:11.000Z,21.683655
2019-03-16T09:38:13.352Z,21.663513
2019-03-16T09:38:15.742Z,21.683655
2019-03-16T09:38:18.106Z,21.683655
2019-03-16T09:38:20.511Z,21.663513
2019-03-16T09:38:22.893Z,21.663513
2019-03-16T09:38:25.294Z,21.683655
2019-03-16T09:38:27.663Z,21.683655
2019-03-16T09:38:30.072Z,21.683655
2019-03-16T09:38:32.461Z,21.693726
2019-03-16T09:38:34.797Z,21.683655
2019-03-16T09:38:37.140Z,21.683655
2019-03-16T09:38:39.506Z,21.703796
2019-03-16T09:38:41.867Z,21.703796
2019-03-16T09:38:44.181Z,21.703796
2019-03-16T09:38:46.566Z,21.703796
2019-03-16T09:38:48.947Z,21.693726
2019-03-16T09:38:51.294Z,21.703796
2019-03-16T09:38:53.682Z,21.703796
2019-03-16T09:38:56.005Z,21.693726
2019-03-16T09:38:58.424Z,21.693726
2019-03-16T09:39:00.789Z,21.723938
2019-03-16T09:39:03.258Z,21.703796
2019-03-16T09:39:05.549Z,21.693726
2019-03-16T09:39:07.975Z,21.703796
2019-03-16T09:39:10.380Z,21.703796
2019-03-16T09:39:12.728Z,21.693726
2019-03-16T09:39:15.103Z,21.703796
2019-03-16T09:39:17.530Z,21.723938
2019-03-16T09:39:19.898Z,21.703796
2019-03-16T09:39:22.275Z,21.693726
2019-03-16T09:39:24.647Z,21.723938
2019-03-16T09:39:27.030Z,21.703796
2019-03-16T09:39:29.466Z,21.74408
2019-03-16T09:39:31.828Z,21.703796
2019-03-16T09:39:34.176Z,21.74408
2019-03-16T09:39:36.558Z,21.703796
2019-03-16T09:39:38.962Z,21.74408
2019-03-16T09:39:42.093Z,21.723938
2019-03-16T09:39:44.437Z,21.723938
2019-03-16T09:39:46.788Z,21.693726
2019-03-16T09:39:49.177Z,21.723938
2019-03-16T09:39:51.513Z,21.74408
2019-03-16T09:39:53.909Z,21.723938
2019-03-16T09:39:56.282Z,21.703796
2019-03-16T09:39:59.705Z,21.723938
2019-03-16T09:40:02.102Z,21.723938
2019-03-16T09:40:04.471Z,21.703796
2019-03-16T09:40:06.828Z,21.703796
2019-03-16T09:40:09.174Z,21.723938
2019-03-16T09:40:11.548Z,21.723938
2019-03-16T09:40:13.944Z,21.693726
2019-03-16T09:40:16.267Z,21.723938
2019-03-16T09:40:18.650Z,21.74408
2019-03-16T09:40:21.021Z,21.703796
2019-03-16T09:40:23.418Z,21.723938
2019-03-16T09:40:25.799Z,21.74408
2019-03-16T09:40:28.139Z,21.723938
2019-03-16T09:40:30.553Z,21.723938
2019-03-16T09:40:32.942Z,21.723938
2019-03-16T09:40:35.275Z,21.723938
2019-03-16T09:40:37.671Z,21.703796
2019-03-16T09:40:40.059Z,21.74408
2019-03-16T09:40:42.426Z,21.75415
2019-03-16T09:40:44.804Z,21.74408
2019-03-16T09:40:48.155Z,21.774292
2019-03-16T09:40:50.565Z,21.703796
2019-03-16T09:40:52.954Z,21.723938
2019-03-16T09:40:55.327Z,21.75415
2019-03-16T09:40:57.675Z,21.774292
2019-03-16T09:41:00.031Z,21.74408
2019-03-16T09:41:02.388Z,21.74408
2019-03-16T09:41:04.768Z,21.74408
2019-03-16T09:41:07.137Z,21.74408
2019-03-16T09:41:09.493Z,21.75415
2019-03-16T09:41:11.846Z,21.75415
2019-03-16T09:41:14.204Z,21.74408
2019-03-16T09:41:16.581Z,21.75415
2019-03-16T09:41:18.982Z,21.74408
2019-03-16T09:41:21.376Z,21.75415
2019-03-16T09:41:24.716Z,21.75415
2019-03-16T09:41:27.115Z,21.774292
2019-03-16T09:41:29.527Z,21.74408
2019-03-16T09:41:31.867Z,21.74408
2019-03-16T09:41:34.261Z,21.75415
2019-03-16T09:41:36.664Z,21.774292
2019-03-16T09:41:39.026Z,21.75415
2019-03-16T09:41:41.450Z,21.784363
2019-03-16T09:41:43.791Z,21.774292
2019-03-16T09:41:46.117Z,21.75415
2019-03-16T09:41:48.492Z,21.784363
2019-03-16T09:42:13.130Z,21.784363
2019-03-16T09:42:15.465Z,21.774292
2019-03-16T09:42:19.829Z,21.774292
2019-03-16T09:42:22.178Z,21.784363
2019-03-16T09:42:24.535Z,21.784363
2019-03-16T09:42:26.897Z,21.804504
2019-03-16T09:42:29.286Z,21.804504
2019-03-16T09:42:31.667Z,21.784363
2019-03-16T09:42:34.045Z,21.804504
2019-03-16T09:42:36.414Z,21.784363
2019-03-16T09:42:38.783Z,21.804504
2019-03-16T09:42:42.155Z,21.784363
2019-03-16T09:42:44.511Z,21.804504
2019-03-16T09:42:46.922Z,21.814575
2019-03-16T09:42:49.286Z,21.784363
2019-03-16T09:42:51.695Z,21.804504
2019-03-16T09:42:54.061Z,21.804504
2019-03-16T09:42:56.446Z,21.804504
2019-03-16T09:42:58.854Z,21.804504
2019-03-16T09:43:01.174Z,21.834717
2019-03-16T09:43:03.509Z,21.804504
2019-03-16T09:43:05.861Z,21.814575
2019-03-16T09:43:08.251Z,21.834717
2019-03-16T09:43:10.649Z,21.804504
2019-03-16T09:43:12.991Z,21.834717
2019-03-16T09:43:15.505Z,21.834717
2019-03-16T09:43:17.877Z,21.844788
2019-03-16T09:43:20.235Z,21.834717
2019-03-16T09:43:22.595Z,21.804504
2019-03-16T09:43:24.977Z,21.834717
2019-03-16T09:43:27.426Z,21.834717
2019-03-16T09:43:29.784Z,21.834717
2019-03-16T09:43:32.165Z,21.834717
2019-03-16T09:43:34.515Z,21.844788
2019-03-16T09:43:36.886Z,21.834717
2019-03-16T09:43:39.256Z,21.844788
2019-03-16T09:43:41.643Z,21.844788
2019-03-16T09:43:44.026Z,21.844788
2019-03-16T09:43:46.376Z,21.844788
2019-03-16T09:43:48.756Z,21.844788
2019-03-16T09:43:51.153Z,21.834717
2019-03-16T09:43:53.486Z,21.854858
2019-03-16T09:43:55.879Z,21.834717
2019-03-16T09:43:58.253Z,21.834717
2019-03-16T09:44:02.199Z,21.844788
2019-03-16T09:44:04.125Z,21.834717
2019-03-16T09:44:09.177Z,21.844788
2019-03-16T09:44:11.619Z,21.875
2019-03-16T09:44:13.964Z,21.834717
2019-03-16T09:44:17.316Z,21.854858
2019-03-16T09:44:19.711Z,21.844788
2019-03-16T09:44:22.111Z,21.834717
2019-03-16T09:44:24.471Z,21.844788
2019-03-16T09:44:26.875Z,21.854858
2019-03-16T09:44:29.211Z,21.844788
2019-03-16T09:44:31.592Z,21.854858
2019-03-16T09:44:33.948Z,21.844788
2019-03-16T09:44:36.305Z,21.854858
2019-03-16T09:44:38.676Z,21.844788
2019-03-16T09:44:42.012Z,21.875
2019-03-16T09:44:44.391Z,21.854858
2019-03-16T09:44:46.756Z,21.875
2019-03-16T09:44:49.115Z,21.844788
2019-03-16T09:44:52.484Z,21.854858
2019-03-16T09:44:54.846Z,21.854858
2019-03-16T09:44:57.219Z,21.875
2019-03-16T09:44:59.589Z,21.875
2019-03-16T09:45:01.994Z,21.875
2019-03-16T09:45:04.319Z,21.875
2019-03-16T09:45:06.693Z,21.854858
2019-03-16T09:45:09.055Z,21.875
2019-03-16T09:45:11.416Z,21.844788
2019-03-16T09:45:13.802Z,21.854858
2019-03-16T09:45:16.176Z,21.905212
2019-03-16T09:45:18.537Z,21.885071
2019-03-16T09:45:20.892Z,21.844788
2019-03-16T09:45:23.315Z,21.875
2019-03-16T09:45:25.610Z,21.885071
2019-03-16T09:45:27.988Z,21.854858
2019-03-16T09:45:30.338Z,21.875
2019-03-16T09:45:32.700Z,21.854858
2019-03-16T09:45:35.048Z,21.875
2019-03-16T09:45:37.396Z,21.875
2019-03-16T09:45:39.749Z,21.885071
2019-03-16T09:45:42.252Z,21.875
2019-03-16T09:45:44.625Z,21.885071
2019-03-16T09:45:46.995Z,21.875
2019-03-16T09:45:49.350Z,21.885071
2019-03-16T09:45:51.693Z,21.844788
2019-03-16T09:45:54.094Z,21.885071
2019-03-16T09:45:56.653Z,21.875
2019-03-16T09:45:59.024Z,21.875
2019-03-16T09:46:01.506Z,21.875
2019-03-16T09:46:03.959Z,21.885071
2019-03-16T09:46:06.325Z,21.875
2019-03-16T09:46:08.781Z,21.905212
2019-03-16T09:46:11.172Z,21.875
2019-03-16T09:46:13.526Z,21.885071
2019-03-16T09:46:15.911Z,21.905212
2019-03-16T09:46:18.220Z,21.885071
2019-03-16T09:46:20.650Z,21.905212
2019-03-16T09:46:22.997Z,21.935425
2019-03-16T09:46:25.404Z,21.905212
2019-03-16T09:46:27.740Z,21.905212
2019-03-16T09:46:30.102Z,21.915283
2019-03-16T09:46:32.487Z,21.915283
2019-03-16T09:46:34.836Z,21.905212
2019-03-16T09:46:37.191Z,21.935425
2019-03-16T09:46:39.563Z,21.905212
2019-03-16T09:46:41.945Z,21.915283
2019-03-16T09:46:44.380Z,21.935425
2019-03-16T09:46:47.742Z,21.935425
2019-03-16T09:46:50.093Z,21.915283
2019-03-16T09:46:52.468Z,21.935425
2019-03-16T09:46:54.912Z,21.935425
2019-03-16T09:46:57.304Z,21.915283
2019-03-16T09:46:59.704Z,21.955566
2019-03-16T09:47:02.119Z,21.935425
2019-03-16T09:47:04.483Z,21.935425
2019-03-16T09:47:06.845Z,21.955566
2019-03-16T09:47:10.247Z,21.955566
2019-03-16T09:47:12.627Z,21.965637
2019-03-16T09:47:14.997Z,21.955566
2019-03-16T09:47:17.370Z,21.965637
2019-03-16T09:47:19.733Z,21.965637
2019-03-16T09:47:22.082Z,21.935425
2019-03-16T09:47:24.447Z,21.955566
2019-03-16T09:47:26.851Z,21.985779
2019-03-16T09:47:29.206Z,21.955566
2019-03-16T09:47:31.600Z,21.985779
2019-03-16T09:47:33.986Z,21.965637
2019-03-16T09:47:36.342Z,21.965637
2019-03-16T09:47:38.728Z,21.965637
2019-03-16T09:47:41.072Z,21.965637
2019-03-16T09:47:43.432Z,21.965637
2019-03-16T09:47:45.775Z,21.965637
2019-03-16T09:47:48.124Z,21.935425
2019-03-16T09:47:50.486Z,21.985779
2019-03-16T09:47:52.843Z,21.955566
2019-03-16T09:47:55.216Z,21.955566
2019-03-16T09:47:57.583Z,21.935425
2019-03-16T09:47:59.931Z,21.965637
2019-03-16T09:48:02.335Z,21.965637
2019-03-16T09:48:04.694Z,21.955566
2019-03-16T09:48:07.059Z,21.965637
2019-03-16T09:48:09.406Z,21.99585
2019-03-16T09:48:11.764Z,21.99585
2019-03-16T09:48:14.168Z,21.99585
2019-03-16T09:48:16.501Z,21.985779
2019-03-16T09:48:18.867Z,21.99585
2019-03-16T09:48:21.283Z,21.965637
2019-03-16T09:48:23.625Z,21.99585
2019-03-16T09:48:25.995Z,21.99585
2019-03-16T09:48:28.357Z,21.985779
2019-03-16T09:48:30.771Z,21.99585
2019-03-16T09:48:33.142Z,21.99585
2019-03-16T09:48:35.486Z,21.985779
2019-03-16T09:48:37.911Z,21.99585
2019-03-16T09:48:40.326Z,22.00592
2019-03-16T09:48:42.673Z,21.985779
2019-03-16T09:48:45.032Z,21.99585
2019-03-16T09:48:47.413Z,21.985779
2019-03-16T09:48:49.723Z,21.985779
2019-03-16T09:48:52.173Z,21.99585
2019-03-16T09:48:54.537Z,21.985779
2019-03-16T09:48:56.965Z,21.99585
2019-03-16T09:48:59.357Z,22.00592
2019-03-16T09:49:01.731Z,21.99585
2019-03-16T09:49:04.116Z,21.99585
2019-03-16T09:49:09.102Z,22.00592
2019-03-16T09:49:11.448Z,21.99585
2019-03-16T09:49:13.820Z,21.99585
2019-03-16T09:49:16.333Z,22.00592
2019-03-16T09:49:18.788Z,22.00592
2019-03-16T09:49:21.204Z,22.00592
2019-03-16T09:49:23.661Z,22.00592
2019-03-16T09:49:26.146Z,22.00592
2019-03-16T09:49:28.584Z,22.026062
2019-03-16T09:49:31.121Z,22.026062
2019-03-16T09:49:33.533Z,22.036133
2019-03-16T09:49:36.352Z,21.99585
2019-03-16T09:49:38.810Z,22.036133
2019-03-16T09:49:41.161Z,22.036133
2019-03-16T09:49:43.520Z,22.026062
2019-03-16T09:49:46.080Z,22.026062
2019-03-16T09:49:48.621Z,22.026062
2019-03-16T09:49:51.035Z,22.036133
2019-03-16T09:49:53.409Z,22.026062
2019-03-16T09:49:55.724Z,22.036133
2019-03-16T09:49:58.258Z,22.056274
2019-03-16T09:50:00.650Z,22.056274
2019-03-16T09:50:03.017Z,22.036133
2019-03-16T09:50:07.463Z,22.036133
2019-03-16T09:50:09.839Z,22.036133
2019-03-16T09:50:12.183Z,22.056274
2019-03-16T09:50:14.783Z,22.066345
2019-03-16T09:50:17.280Z,22.056274
2019-03-16T09:50:19.772Z,22.056274
2019-03-16T09:50:22.125Z,22.056274
2019-03-16T09:50:24.505Z,22.056274
2019-03-16T09:50:26.884Z,22.066345
2019-03-16T09:50:29.410Z,22.066345
2019-03-16T09:50:31.925Z,22.056274
2019-03-16T09:50:34.401Z,22.066345
2019-03-16T09:50:36.935Z,22.066345
2019-03-16T09:50:39.692Z,22.076416
2019-03-16T09:50:42.133Z,22.066345
2019-03-16T09:50:44.654Z,22.076416
2019-03-16T09:50:47.038Z,22.076416
2019-03-16T09:50:49.436Z,22.066345
2019-03-16T09:50:51.785Z,22.076416
2019-03-16T09:50:54.151Z,22.066345
2019-03-16T09:50:56.511Z,22.076416
2019-03-16T09:50:58.899Z,22.076416
2019-03-16T09:51:01.234Z,22.076416
2019-03-16T09:51:03.601Z,22.096558